Thunder radar more information blitzortung!


Radar de pluja more information rain snow radar


Visita la nostra xarxa de llocs de meteo:

Template documentation
and downloads

And another site



No particular awareness of the weather is required.    There are no Weather-warnings

Pagina Historial Weather Underground text

Diari Resum January 26, 2018 Unitats:  Mètric    Imperial   Tant
« Previous Dia
SegĂźent Dia »
Diari Setmana Mensual Anual Personalitzada
  Maxima: Minima: Media:
Temperatura: -17.8 °C -15.4 °C -14.4 °C
Punt de rosada: -17.8 °C -16.4 °C -15.6 °C
Humitat: Humidity % 84 % 86 %
Wind Speed: 0 km/h 0 km/h 7.9 km/h
RĂ fegues de vent: 0 km/h - -
Vent:- - SSE
Pression baro: 0 hPa 34327.3 hPa -
Precipitacions: 1076.96 mm    
Historical Graphs
 
 
Dades de taula per January 26, 2018
Temps Temperatura Punt de rosada Pression baro Vent Wind Speed RĂ fegues de vent Humitat Rainfall Rate (Hourly)
-17.8 °C -17.8 °C 0 hPa Calm     Humidity % 0 mm
00:00 -13.4 °C -14.4 °C 34327.3 hPa WSW 2.6 km/h 5.1 km/h 88 % 50.8 mm
00:03 -12 °C -13.4 °C 34395 hPa East 6 km/h 6.3 km/h 84 % 0 mm
00:08 -12.1 °C -13.5 °C 34395 hPa NE 9 km/h 9 km/h 84 % 0 mm
00:10 -13.4 °C -14.5 °C 34327.3 hPa West 7.7 km/h 7.7 km/h 88 % 58.42 mm
00:13 -12.1 °C -13.4 °C 34395 hPa NNE 9 km/h 9 km/h 85 % 0 mm
00:18 -12.1 °C -13.4 °C 34395 hPa NE 9 km/h 9 km/h 85 % 0 mm
00:20 -13.4 °C -14.5 °C 34327.3 hPa Calm   7.7 km/h 88 % 33.02 mm
00:23 -12.1 °C -13.4 °C 34395 hPa ENE 6 km/h 6 km/h 85 % 0 mm
00:28 -12.1 °C -13.4 °C 34395 hPa North 7.6 km/h 7.6 km/h 85 % 0 mm
00:30 -13.5 °C -14.6 °C 34327.3 hPa WSW 5.1 km/h 7.7 km/h 88 % 0 mm
00:33 -12.1 °C -13.3 °C 34395 hPa Calm     86 % 0 mm
00:38 -12.1 °C -13.4 °C 34395 hPa NNE 6.3 km/h 6.3 km/h 86 % 0 mm
00:40 -13.5 °C -14.6 °C 34327.3 hPa WSW 5.1 km/h 10.3 km/h 87 % 0 mm
00:43 -12.1 °C -13.4 °C 34395 hPa NE 3.1 km/h 3.1 km/h 86 % 0 mm
00:48 -12.1 °C -13.4 °C 34395 hPa NNW 3.1 km/h   86 % 0 mm
00:50 -13.5 °C -14.6 °C 34327.3 hPa West 5.1 km/h 7.7 km/h 88 % 0 mm
00:53 -12.1 °C -13.4 °C 34395 hPa NNW 3.1 km/h   86 % 0 mm
00:58 -12.1 °C -13.3 °C 34395 hPa Calm     87 % 0 mm
01:00 -13.5 °C -14.6 °C 34327.3 hPa Calm   5.1 km/h 88 % 0 mm
01:03 -12.1 °C -13.3 °C 34361.1 hPa NNE 6 km/h 6 km/h 87 % 0 mm
01:08 -12.1 °C -13.3 °C 34361.1 hPa NNE 3.1 km/h 3.1 km/h 87 % 0 mm
01:10 -13.6 °C -14.6 °C 34327.3 hPa Calm   5.1 km/h 88 % 0 mm
01:13 -12.1 °C -13.3 °C 34361.1 hPa Calm     87 % 0 mm
01:18 -12.1 °C -13.3 °C 34361.1 hPa NNE 3.1 km/h 3.1 km/h 87 % 0 mm
01:20 -13.6 °C -14.6 °C 34327.3 hPa Calm   5.1 km/h 88 % 0 mm
01:23 -12.2 °C -13.3 °C 34361.1 hPa NNE 9 km/h 9 km/h 87 % 0 mm
01:28 -12.2 °C -13.2 °C 34361.1 hPa NE 6 km/h 6 km/h 88 % 25.4 mm
01:30 -13.5 °C -14.4 °C 34327.3 hPa WNW 2.6 km/h 5.1 km/h 89 % 25.4 mm
01:33 -12.2 °C -13.2 °C 34361.1 hPa North 4.2 km/h 4.2 km/h 88 % 25.4 mm
01:38 -12.2 °C -13.2 °C 34361.1 hPa NE 9 km/h 9 km/h 88 % 25.4 mm
01:40 -13.5 °C -14.4 °C 34327.3 hPa Calm   5.1 km/h 89 % 25.4 mm
01:43 -12.2 °C -13.2 °C 34361.1 hPa Calm     88 % 25.4 mm
01:48 -12.2 °C -13.2 °C 34361.1 hPa Calm     88 % 25.4 mm
01:50 -13.6 °C -14.5 °C 34327.3 hPa NNE 5.1 km/h 10.3 km/h 89 % 0 mm
01:53 -12.1 °C -13.2 °C 34361.1 hPa NNE 6 km/h 6.3 km/h 88 % 25.4 mm
01:58 -12.2 °C -13.2 °C 34361.1 hPa NNE 9 km/h 9 km/h 88 % 25.4 mm
02:00 -13.7 °C -14.8 °C 34327.3 hPa NNE 5.1 km/h 23.3 km/h 88 % 0 mm
02:03 -12.2 °C -13.1 °C 34327.3 hPa NNE 6.8 km/h 6.8 km/h 89 % 25.4 mm
02:08 -12.2 °C -13.1 °C 34327.3 hPa NNE 9 km/h 9 km/h 89 % 25.4 mm
02:10 -13.9 °C -15 °C 34327.3 hPa NNE 5.1 km/h 15.6 km/h 87 % 0 mm
02:13 -12.2 °C -13.1 °C 34327.3 hPa ENE 6 km/h 6 km/h 89 % 25.4 mm
02:18 -12.2 °C -13.1 °C 34327.3 hPa Calm     89 % 25.4 mm
02:20 -14.1 °C -15.2 °C 34361.1 hPa WNW 5.1 km/h 7.7 km/h 87 % 0 mm
02:23 -12.2 °C -13.1 °C 34327.3 hPa ENE 3.1 km/h   89 % 25.4 mm
02:28 -12.2 °C -13.1 °C 34327.3 hPa ENE 3.1 km/h   89 % 0 mm
02:30 -14.1 °C -15.3 °C 34361.1 hPa WNW 7.7 km/h 18.2 km/h 86 % 0 mm
02:33 -12.2 °C -13.1 °C 34327.3 hPa Calm     89 % 0 mm
02:38 -12.2 °C -13.1 °C 34327.3 hPa WSW 6 km/h 6 km/h 89 % 0 mm
02:40 -14.2 °C -15.4 °C 34361.1 hPa NNW 7.7 km/h 12.9 km/h 86 % 76.2 mm
02:43 -12.2 °C -13.1 °C 34327.3 hPa WSW 6 km/h 6 km/h 89 % 0 mm
02:48 -12.2 °C -13.2 °C 34327.3 hPa West 6 km/h 6 km/h 88 % 0 mm
02:50 -14.4 °C -15.6 °C 34361.1 hPa NNE 12.9 km/h 12.9 km/h 86 % 76.2 mm
02:53 -12.1 °C -13.2 °C 34327.3 hPa WSW 6 km/h 6 km/h 88 % 0 mm
02:58 -12.3 °C -13.3 °C 34327.3 hPa SW 9.3 km/h 9.3 km/h 88 % 0 mm
03:00 -14.4 °C -15.7 °C 34361.1 hPa NE 12.9 km/h 25.9 km/h 85 % 50.8 mm
09:09 -14.6 °C -15.8 °C 34361.1 hPa NNE 9 km/h 16.1 km/h 86 % 187.96 mm
09:14 -14.6 °C -15.8 °C 34361.1 hPa ENE 26.9 km/h 26.9 km/h 86 % 187.96 mm
09:19 -14.6 °C -15.8 °C 34361.1 hPa East 26.9 km/h 26.9 km/h 86 % 160.02 mm
09:24 -14.6 °C -15.7 °C 34361.1 hPa NW 23.8 km/h 23.8 km/h 87 % 160.02 mm
09:29 -14.6 °C -15.7 °C 34361.1 hPa NNE 38.8 km/h 38.8 km/h 87 % 160.02 mm
09:34 -14.7 °C -15.8 °C 34361.1 hPa ENE 26.9 km/h 26.9 km/h 87 % 160.02 mm
09:39 -14.7 °C -15.8 °C 34361.1 hPa NNE 26.9 km/h 26.9 km/h 87 % 187.96 mm
09:44 -14.7 °C -15.8 °C 34361.1 hPa ENE 23.8 km/h 23.8 km/h 87 % 187.96 mm
09:49 -14.7 °C -15.8 °C 34395 hPa NNW 15 km/h 15 km/h 87 % 187.96 mm
09:54 -14.7 °C -15.8 °C 34395 hPa NE 26.9 km/h 26.9 km/h 87 % 134.62 mm
09:59 -14.7 °C -15.8 °C 34395 hPa NNE 9 km/h 9 km/h 87 % 160.02 mm
10:04 -14.7 °C -15.8 °C 34395 hPa NNE 11.9 km/h 11.9 km/h 87 % 109.22 mm
10:09 -14.7 °C -15.8 °C 34395 hPa WNW 15 km/h 15 km/h 87 % 76.2 mm
10:14 -14.7 °C -15.8 °C 34395 hPa NNW 6.3 km/h 6.3 km/h 87 % 76.2 mm
10:19 -14.6 °C -15.7 °C 34428.8 hPa NNE 6.3 km/h 6.3 km/h 87 % 104.14 mm
10:24 -14.6 °C -15.7 °C 34428.8 hPa WNW 6 km/h 6 km/h 87 % 104.14 mm
10:29 -14.6 °C -15.7 °C 34428.8 hPa NE 9.3 km/h 9.3 km/h 87 % 104.14 mm
10:34 -14.7 °C -15.8 °C 34462.7 hPa NNE 16.6 km/h 16.6 km/h 87 % 104.14 mm
10:39 -14.7 °C -15.8 °C 34462.7 hPa ENE 15 km/h 15 km/h 87 % 76.2 mm
10:44 -14.7 °C -15.9 °C 34462.7 hPa NNE 15 km/h 15 km/h 86 % 76.2 mm
10:49 -14.7 °C -15.9 °C 34462.7 hPa NNE 11.9 km/h 11.9 km/h 86 % 76.2 mm
10:54 -14.8 °C -16 °C 34462.7 hPa NNE 17.9 km/h 17.9 km/h 86 % 134.62 mm
10:59 -14.8 °C -16 °C 34462.7 hPa NNE 18.3 km/h 18.3 km/h 86 % 134.62 mm
11:04 -14.8 °C -16 °C 34462.7 hPa NNE 17.9 km/h 17.9 km/h 86 % 134.62 mm
11:09 -14.8 °C -16 °C 34462.7 hPa NNE 6.8 km/h 6.8 km/h 86 % 134.62 mm
11:14 -14.8 °C -16 °C 34462.7 hPa NE 15 km/h 15 km/h 86 % 160.02 mm
11:19 -14.8 °C -16 °C 34462.7 hPa North 16.1 km/h 16.1 km/h 86 % 134.62 mm
11:24 -14.9 °C -16.1 °C 34462.7 hPa NNE 17.9 km/h 17.9 km/h 86 % 134.62 mm
11:29 -14.9 °C -16.1 °C 34462.7 hPa NNE 20.9 km/h 20.9 km/h 86 % 134.62 mm
11:34 -14.8 °C -16 °C 34428.8 hPa NNE 17.9 km/h 17.9 km/h 86 % 134.62 mm
11:39 -14.9 °C -16.1 °C 34428.8 hPa NNE 23.8 km/h 23.8 km/h 86 % 134.62 mm
11:44 -14.8 °C -16 °C 34428.8 hPa NNE 17.9 km/h 17.9 km/h 86 % 134.62 mm
11:49 -14.8 °C -16 °C 34428.8 hPa NNE 17.9 km/h 17.9 km/h 86 % 134.62 mm
11:54 -14.8 °C -16 °C 34428.8 hPa NNE 20.9 km/h 20.9 km/h 86 % 50.8 mm
11:59 -14.9 °C -16.1 °C 34428.8 hPa NNE 17.9 km/h 17.9 km/h 86 % 50.8 mm
12:04 -14.9 °C -16.1 °C 34428.8 hPa NNE 26.9 km/h 26.9 km/h 86 % 50.8 mm
12:09 -14.9 °C -16.1 °C 34428.8 hPa NNE 20.9 km/h 20.9 km/h 86 % 50.8 mm
12:14 -14.9 °C -16.2 °C 34428.8 hPa NNE 26.9 km/h 26.9 km/h 86 % 25.4 mm
12:19 -14.9 °C -16.2 °C 34428.8 hPa North 20.9 km/h 20.9 km/h 85 % 25.4 mm
12:24 -14.9 °C -16.2 °C 34428.8 hPa NNE 15 km/h 15 km/h 86 % 25.4 mm
12:29 -14.9 °C -16.2 °C 34428.8 hPa NNE 11.9 km/h 11.9 km/h 86 % 25.4 mm
12:34 -15 °C -16.2 °C 34428.8 hPa NNW 16.6 km/h 16.6 km/h 86 % 50.8 mm
12:39 -15 °C -16.2 °C 34428.8 hPa West 15 km/h 15 km/h 86 % 50.8 mm
12:44 -15 °C -16.2 °C 34428.8 hPa NNW 11.9 km/h 12.2 km/h 86 % 50.8 mm
12:49 -15 °C -16.2 °C 34395 hPa ENE 15 km/h 15 km/h 86 % 50.8 mm
12:54 -15 °C -16.2 °C 34395 hPa NE 7.6 km/h 7.6 km/h 86 % 50.8 mm
12:59 -15 °C -16.2 °C 34395 hPa ENE 8.5 km/h 8.5 km/h 86 % 25.4 mm
13:04 -15 °C -16.2 °C 34428.8 hPa West 11.9 km/h 11.9 km/h 86 % 25.4 mm
13:09 -15.1 °C -16.2 °C 34428.8 hPa NNE 11.9 km/h 11.9 km/h 86 % 25.4 mm
13:14 -15.1 °C -16.2 °C 34428.8 hPa North 11.9 km/h 11.9 km/h 86 % 50.8 mm
13:19 -15.1 °C -16.2 °C 34428.8 hPa ENE 12.7 km/h 12.7 km/h 86 % 50.8 mm
13:24 -15.1 °C -16.2 °C 34428.8 hPa NNW 9 km/h 9 km/h 86 % 50.8 mm
13:29 -15.1 °C -16.2 °C 34428.8 hPa NNE 9 km/h 9 km/h 86 % 83.82 mm
13:34 -15.1 °C -16.2 °C 34395 hPa NNE 9 km/h 9 km/h 86 % 58.42 mm
13:39 -15.1 °C -16.2 °C 34395 hPa NE 9 km/h 9 km/h 86 % 58.42 mm
13:44 -15.1 °C -16.2 °C 34395 hPa WSW 11.9 km/h 11.9 km/h 86 % 58.42 mm
13:49 -15 °C -16.3 °C 34395 hPa ENE 15 km/h 15 km/h 85 % 58.42 mm
13:54 -15 °C -16.3 °C 34395 hPa NE 15 km/h 15 km/h 85 % 83.82 mm
13:59 -14.9 °C -16.2 °C 34395 hPa NNW 17.9 km/h 17.9 km/h 85 % 83.82 mm
14:04 -14.9 °C -16.1 °C 34428.8 hPa SW 6 km/h 6 km/h 86 % 83.82 mm
14:09 -14.9 °C -16.1 °C 34428.8 hPa WSW 9 km/h 9 km/h 86 % 83.82 mm
14:14 -14.8 °C -16 °C 34428.8 hPa SW 6.3 km/h 6.3 km/h 86 % 83.82 mm
14:19 -14.8 °C -16 °C 34395 hPa West 6 km/h 6 km/h 86 % 83.82 mm
14:24 -14.8 °C -16 °C 34395 hPa SW 6 km/h 6 km/h 86 % 83.82 mm
14:29 -14.7 °C -15.9 °C 34395 hPa SW 6 km/h 6 km/h 86 % 50.8 mm
14:34 -14.7 °C -15.8 °C 34428.8 hPa WSW 9 km/h 9 km/h 87 % 50.8 mm
14:39 -14.7 °C -15.8 °C 34428.8 hPa NW 15 km/h 15 km/h 87 % 50.8 mm
14:44 -14.7 °C -15.8 °C 34428.8 hPa West 9 km/h 9 km/h 87 % 50.8 mm
14:49 -14.8 °C -16 °C 34428.8 hPa West 11.9 km/h 11.9 km/h 86 % 50.8 mm
14:54 -14.9 °C -16.1 °C 34428.8 hPa WSW 17.9 km/h 17.9 km/h 86 % 50.8 mm
14:59 -15 °C -16.2 °C 34428.8 hPa South 20.9 km/h 20.9 km/h 86 % 50.8 mm
15:04 -15.1 °C -16.2 °C 34462.7 hPa WSW 15 km/h 15 km/h 86 % 50.8 mm
15:09 -15.1 °C -16.3 °C 34462.7 hPa WSW 15 km/h 15 km/h 86 % 50.8 mm
15:14 -15.1 °C -16.3 °C 34462.7 hPa WSW 12.2 km/h 12.2 km/h 86 % 25.4 mm
15:19 -15.2 °C -16.3 °C 34462.7 hPa WSW 15.6 km/h 15.6 km/h 86 % 25.4 mm
15:24 -15.2 °C -16.3 °C 34462.7 hPa WSW 12.2 km/h 12.2 km/h 86 % 25.4 mm
15:29 -15.2 °C -16.4 °C 34462.7 hPa WSW 11.9 km/h 11.9 km/h 86 % 25.4 mm
15:34 -15.2 °C -16.4 °C 34428.8 hPa WSW 17.9 km/h 17.9 km/h 86 % 25.4 mm
15:39 -15.2 °C -16.4 °C 34428.8 hPa West 29.8 km/h 29.8 km/h 86 % 25.4 mm
15:44 -15.2 °C -16.4 °C 34428.8 hPa WNW 23.8 km/h 23.8 km/h 86 % 25.4 mm
15:49 -15.2 °C -16.4 °C 34462.7 hPa NW 15 km/h 15 km/h 86 % 25.4 mm
15:54 -15.2 °C -16.4 °C 34462.7 hPa West 15.6 km/h 15.6 km/h 86 % 0 mm
15:59 -15.2 °C -16.3 °C 34462.7 hPa NW 26.9 km/h 26.9 km/h 86 % 0 mm
16:04 -15.1 °C -16.3 °C 34462.7 hPa WSW 15 km/h 15 km/h 86 % 0 mm
16:09 -15.2 °C -16.3 °C 34462.7 hPa WNW 15 km/h 15 km/h 86 % 0 mm
16:14 -15.1 °C -16.3 °C 34462.7 hPa SSW 9 km/h 9 km/h 86 % 0 mm
16:19 -15.1 °C -16.3 °C 34462.7 hPa WSW 17.9 km/h 17.9 km/h 86 % 0 mm
16:24 -15.1 °C -16.3 °C 34462.7 hPa SW 15 km/h 15 km/h 86 % 0 mm
16:26 -15.1 °C -16.3 °C 34462.7 hPa WSW 15 km/h 15 km/h 86 % 0 mm
16:31 -15.1 °C -16.2 °C 34462.7 hPa WSW 6 km/h 6 km/h 86 % 0 mm
16:36 -15.1 °C -16.2 °C 34462.7 hPa SW 9 km/h 9 km/h 86 % 0 mm
16:41 -15.1 °C -16.3 °C 34462.7 hPa WSW 15 km/h 15 km/h 85 % 0 mm
16:46 -15 °C -16.3 °C 34462.7 hPa NNE 15 km/h 15 km/h 85 % 0 mm
16:51 -15 °C -16.3 °C 34462.7 hPa West 11.9 km/h 11.9 km/h 85 % 25.4 mm
16:56 -15 °C -16.3 °C 34462.7 hPa WNW 9 km/h 9 km/h 85 % 25.4 mm
17:01 -14.9 °C -16.2 °C 34462.7 hPa SW 3.1 km/h   85 % 25.4 mm
17:06 -14.9 °C -16.2 °C 34462.7 hPa WSW 6 km/h 6 km/h 85 % 25.4 mm
17:11 -14.9 °C -16.2 °C 34462.7 hPa Calm     85 % 25.4 mm
17:16 -14.9 °C -16.2 °C 34462.7 hPa WSW 6 km/h 6 km/h 85 % 25.4 mm
17:21 -14.9 °C -16.2 °C 34462.7 hPa West 6 km/h   85 % 25.4 mm
17:26 -14.9 °C -16.2 °C 34462.7 hPa WSW 3.1 km/h   85 % 25.4 mm
17:31 -14.9 °C -16.1 °C 34462.7 hPa SW 3.7 km/h 3.7 km/h 86 % 25.4 mm
17:36 -14.9 °C -16.1 °C 34462.7 hPa Calm     86 % 25.4 mm
17:41 -14.9 °C -16.1 °C 34462.7 hPa Calm     86 % 25.4 mm
17:46 -14.8 °C -16 °C 34462.7 hPa SW 6 km/h 6 km/h 86 % 25.4 mm
17:51 -14.8 °C -16 °C 34462.7 hPa Calm     86 % 0 mm
17:56 -14.8 °C -16 °C 34462.7 hPa WSW 3.1 km/h 3.1 km/h 86 % 0 mm
18:01 -14.9 °C -16.1 °C 34462.7 hPa SW 6 km/h 6 km/h 86 % 0 mm
18:06 -14.9 °C -16.1 °C 34462.7 hPa SW 3.1 km/h 3.7 km/h 86 % 0 mm
18:11 -14.9 °C -16.1 °C 34462.7 hPa WSW 9.3 km/h 9.3 km/h 86 % 0 mm
18:15 -14.9 °C -16.1 °C 34462.7 hPa SW 2.6 km/h 10.3 km/h 86 % 0 mm
18:20 -14.9 °C -16.1 °C 34462.7 hPa NE 6 km/h   86 % 0 mm
18:25 -14.9 °C -16 °C 34462.7 hPa Calm     87 % 0 mm
18:30 -14.9 °C -16.1 °C 34462.7 hPa Calm   5.1 km/h 86 % 0 mm
18:35 -14.9 °C -16 °C 34496.6 hPa WSW 3.7 km/h 3.7 km/h 87 % 0 mm
18:40 -14.8 °C -15.9 °C 34496.6 hPa WSW 3.1 km/h   87 % 0 mm
18:45 -14.8 °C -15.9 °C 34496.6 hPa Calm     87 % 0 mm
18:50 -14.8 °C -15.9 °C 34496.6 hPa Calm     87 % 0 mm
18:55 -14.8 °C -15.9 °C 34496.6 hPa Calm     87 % 0 mm
19:00 -14.8 °C -15.9 °C 34496.6 hPa Calm     87 % 0 mm
19:05 -14.8 °C -15.9 °C 34496.6 hPa WSW 4.2 km/h 4.2 km/h 87 % 0 mm
19:10 -14.8 °C -15.9 °C 34496.6 hPa SW 3.1 km/h   87 % 0 mm
19:15 -14.8 °C -15.9 °C 34496.6 hPa Calm   5.1 km/h 87 % 0 mm
19:20 -14.9 °C -16 °C 34496.6 hPa Calm     87 % 0 mm
19:25 -14.9 °C -16 °C 34496.6 hPa Calm     87 % 0 mm
19:30 -14.9 °C -16 °C 34496.6 hPa Calm     87 % 0 mm
19:35 -14.9 °C -16 °C 34496.6 hPa SW 2.6 km/h 7.7 km/h 87 % 0 mm
19:40 -14.9 °C -16.1 °C 34496.6 hPa WSW 6 km/h 6 km/h 87 % 0 mm
19:45 -14.9 °C -16 °C 34496.6 hPa Calm     87 % 0 mm
19:50 -14.9 °C -16 °C 34496.6 hPa Calm   5.1 km/h 87 % 0 mm
19:55 -14.9 °C -16 °C 34496.6 hPa WSW 6 km/h 6 km/h 87 % 0 mm
20:00 -14.9 °C -16 °C 34496.6 hPa West 2.6 km/h 7.7 km/h 87 % 0 mm
20:05 -14.9 °C -16 °C 34533.8 hPa West 2.6 km/h 5.1 km/h 87 % 0 mm
20:10 -14.9 °C -16 °C 34533.8 hPa Calm     87 % 0 mm
20:15 -14.9 °C -16 °C 34533.8 hPa WSW 4.2 km/h 4.2 km/h 87 % 0 mm
20:20 -14.9 °C -16 °C 34533.8 hPa Calm     87 % 0 mm
20:25 -14.9 °C -16 °C 34533.8 hPa WSW 3.1 km/h   87 % 0 mm
20:30 -14.9 °C -16 °C 34533.8 hPa Calm     87 % 0 mm
20:35 -14.8 °C -15.8 °C 34533.8 hPa Calm     88 % 0 mm
20:40 -14.8 °C -15.8 °C 34533.8 hPa Calm     88 % 0 mm
20:45 -14.8 °C -15.8 °C 34533.8 hPa Calm     88 % 0 mm
20:50 -14.9 °C -15.9 °C 34533.8 hPa Calm     88 % 0 mm
20:55 -14.9 °C -15.9 °C 34533.8 hPa Calm     88 % 0 mm
21:00 -14.9 °C -15.9 °C 34533.8 hPa WSW 6 km/h   88 % 0 mm
21:05 -14.9 °C -15.9 °C 34533.8 hPa Calm     88 % 0 mm
21:10 -14.9 °C -15.9 °C 34533.8 hPa Calm     88 % 0 mm
21:15 -14.9 °C -15.9 °C 34533.8 hPa Calm     88 % 0 mm
21:20 -14.9 °C -15.9 °C 34533.8 hPa Calm     88 % 0 mm
21:25 -14.9 °C -15.9 °C 34533.8 hPa Calm     88 % 0 mm
21:30 -14.9 °C -15.9 °C 34533.8 hPa NNE 3.1 km/h   88 % 0 mm
21:35 -14.8 °C -15.8 °C 34533.8 hPa NNE 4.2 km/h 4.2 km/h 88 % 0 mm
21:40 -14.9 °C -15.9 °C 34533.8 hPa Calm   5.1 km/h 88 % 0 mm
21:45 -14.9 °C -15.9 °C 34533.8 hPa NE 3.1 km/h 3.1 km/h 88 % 0 mm
21:50 -14.9 °C -15.9 °C 34533.8 hPa Calm     88 % 0 mm
21:55 -14.9 °C -16 °C 34533.8 hPa Calm     88 % 0 mm
22:00 -15.1 °C -16.1 °C 34533.8 hPa Calm     88 % 0 mm
22:05 -15.1 °C -16.1 °C 34533.8 hPa West 3.7 km/h 4.2 km/h 88 % 0 mm
22:10 -15.1 °C -16.1 °C 34533.8 hPa Calm   5.1 km/h 88 % 0 mm
22:15 -15.1 °C -16.2 °C 34533.8 hPa Calm     88 % 0 mm
22:20 -15.1 °C -16.1 °C 34533.8 hPa Calm     88 % 0 mm
22:25 -15.2 °C -16.2 °C 34533.8 hPa WSW 3.1 km/h   88 % 0 mm
22:30 -15.2 °C -16.2 °C 34533.8 hPa Calm   2.6 km/h 88 % 0 mm
22:35 -15.2 °C -16.2 °C 34533.8 hPa WSW 3.7 km/h 3.7 km/h 88 % 0 mm
22:40 -15.2 °C -16.2 °C 34533.8 hPa Calm   2.6 km/h 88 % 0 mm
22:45 -15.2 °C -16.2 °C 34533.8 hPa WSW 2.6 km/h 5.1 km/h 88 % 0 mm
22:50 -15.2 °C -16.2 °C 34533.8 hPa Calm     88 % 0 mm
22:55 -15.2 °C -16.2 °C 34533.8 hPa Calm     88 % 0 mm
23:00 -15.2 °C -16.2 °C 34533.8 hPa Calm   2.6 km/h 88 % 0 mm
23:05 -15.2 °C -16.2 °C 34533.8 hPa Calm   2.6 km/h 88 % 0 mm
23:10 -15.2 °C -16.2 °C 34533.8 hPa Calm     88 % 0 mm
23:15 -15.2 °C -16.2 °C 34533.8 hPa SW 3.1 km/h   89 % 0 mm
23:20 -15.3 °C -16.3 °C 34567.7 hPa Calm     88 % 0 mm
23:25 -15.3 °C -16.3 °C 34567.7 hPa Calm     88 % 0 mm
23:30 -15.3 °C -16.3 °C 34567.7 hPa Calm     88 % 0 mm
23:35 -15.3 °C -16.3 °C 34533.8 hPa Calm     88 % 0 mm
23:40 -15.3 °C -16.3 °C 34533.8 hPa Calm     88 % 0 mm
23:45 -15.4 °C -16.4 °C 34533.8 hPa Calm     88 % 0 mm
23:50 -15.3 °C -16.3 °C 34567.7 hPa Calm     89 % 0 mm
23:55 -15.3 °C -16.3 °C 34567.7 hPa Calm     89 % 0 mm
Meteo Sesrovires
Elogis d' Weather Underground - 2 mb

Guio original per  Jim McMurry - jmcmurry@mwt.net Adaptat per a la plantilla per  Wim van der Kuil - Leuven-Template.eu

Trobareu la nostra informacio del temps tambe a:

Weather Underground

AWEKAS